Flight Track Log - Related Links

Times and Time Zones

All times are in EDT time to prevent confusion due to time zone crossing. See the DAL3784 flight status page for this flight to view local times or setup timezone preferences in your user account.

Time Position Orientation Groundspeed Altitude Reporting Facility
EDT Latitude Longitude Course Direction KTS MPH feet Rate Location/Type
Sun 03:48:48 PM 42.1994 -83.3581 225° Southwest 168 193 1,200  Level Cleveland Center
Sun 03:49:20 PM 42.1844 -83.3783 225° Southwest 188 216 2,400 2,077 Climbing FAA TRACON SMA TRACON (SMA)
Sun 03:49:40 PM 42.1744 -83.3953 231° Southwest 200 230 3,000 2,100 Climbing FAA TRACON SMA TRACON (SMA)
Sun 03:50:00 PM 42.1608 -83.4181 231° Southwest 213 245 3,800 2,550 Climbing FAA TRACON SMA TRACON (SMA)
Sun 03:50:20 PM 42.1494 -83.4369 231° Southwest 217 250 4,700 2,429 Climbing FAA TRACON SMA TRACON (SMA)
Sun 03:50:42 PM 42.1400 -83.4625 244° Southwest 224 258 5,500 2,286 Climbing FAA TRACON SMA TRACON (SMA)
Sun 03:51:02 PM 42.1453 -83.4872 286° West 247 284 6,300 2,919 Climbing FAA TRACON SMA TRACON (SMA)
Sun 03:51:19 PM 42.1594 -83.5108 309° West 255 293 7,300 3,730 Climbing FAA TRACON SMA TRACON (SMA)
Sun 03:51:39 PM 42.1772 -83.5389 311° West 248 285 8,600 3,000 Climbing FAA TRACON SMA TRACON (SMA)
Sun 03:51:59 PM 42.1908 -83.5600 311° West 250 288 9,300 2,400 Climbing FAA TRACON SMA TRACON (SMA)
Sun 03:52:19 PM 42.2047 -83.5825 310° West 256 295 10,200 2,400 Climbing FAA TRACON SMA TRACON (SMA)
Sun 03:52:39 PM 42.2217 -83.6139 306° West 263 303 10,900 1,500 Climbing FAA TRACON SMA TRACON (SMA)
Sun 03:52:59 PM 42.2353 -83.6389 306° West 278 320 11,200 1,050 Climbing FAA TRACON SMA TRACON (SMA)
Sun 03:53:19 PM 42.2506 -83.6672 306° West 304 350 11,600 1,800 Climbing FAA TRACON SMA TRACON (SMA)
Sun 03:53:39 PM 42.2692 -83.7025 305° West 301 346 12,400 2,100 Climbing FAA TRACON SMA TRACON (SMA)
Sun 03:53:59 PM 42.2883 -83.7233 321° Northwest 316 364 13,000 1,800 Climbing FAA TRACON SMA TRACON (SMA)
Sun 03:54:19 PM 42.3192 -83.7286 353° North 350 403 13,600 1,902 Climbing FAA TRACON SMA TRACON (SMA)
Sun 03:54:40 PM 42.3553 -83.7111 20° North 358 412 14,300 2,049 Climbing FAA TRACON SMA TRACON (SMA)
Sun 03:55:00 PM 42.3831 -83.6939 25° Northeast 359 413 15,000 1,800 Climbing FAA TRACON SMA TRACON (SMA)
Sun 03:55:20 PM 42.4114 -83.6761 25° Northeast 362 417 15,500 1,800 Climbing FAA TRACON SMA TRACON (SMA)
Sun 03:55:40 PM 42.4478 -83.6536 25° Northeast 366 421 16,200 1,800 Climbing FAA TRACON SMA TRACON (SMA)
Sun 03:56:00 PM 42.4769 -83.6356 25° Northeast 369 425 16,700 1,650 Climbing FAA TRACON SMA TRACON (SMA)
Sun 03:56:20 PM 42.5061 -83.6178 24° Northeast 372 428 17,300 1,500 Climbing FAA TRACON SMA TRACON (SMA)
Sun 03:56:40 PM 42.5328 -83.6022 23° Northeast 375 432 17,700 1,385 Climbing FAA TRACON SMA TRACON (SMA)
Sun 03:56:59 PM 42.5731 -83.5775 24° Northeast 379 436 18,200 1,538 Climbing FAA TRACON SMA TRACON (SMA)
Sun 03:57:19 PM 42.6033 -83.5589 24° Northeast 383 441 18,700 1,350 Climbing FAA TRACON SMA TRACON (SMA)
Sun 03:57:39 PM 42.6333 -83.5400 25° Northeast 385 443 19,100 1,800 Climbing FAA TRACON SMA TRACON (SMA)
Sun 03:57:59 PM 42.6714 -83.5164 25° Northeast 387 445 19,900 1,800 Climbing FAA TRACON SMA TRACON (SMA)
Sun 03:58:19 PM 42.7011 -83.4981 24° Northeast 385 443 20,300 1,050 Climbing FAA TRACON SMA TRACON (SMA)
Sun 03:58:39 PM 42.7311 -83.4797 24° Northeast 385 443 20,600 1,171 Climbing FAA TRACON SMA TRACON (SMA)
Sun 03:59:00 PM 42.7692 -83.4558 25° Northeast 389 448 21,100 1,317 Climbing FAA TRACON SMA TRACON (SMA)
Sun 03:59:20 PM 42.7997 -83.4372 24° Northeast 389 448 21,500 1,100 Climbing FAA TRACON SMA TRACON (SMA)
Sun 04:00:00 PM 42.8689 -83.3947 24° Northeast 393 452 22,200 900 Climbing FAA TRACON SMA TRACON (SMA)
Sun 04:00:20 PM 42.9003 -83.3761 23° Northeast 395 455 22,400 900 Climbing FAA TRACON SMA TRACON (SMA)
Sun 04:00:40 PM 42.9422 -83.3689 North 404 465 22,800 1,231 Climbing FAA TRACON SMA TRACON (SMA)
Sun 04:00:59 PM 42.9750 -83.3672 North 386 444 23,200 1,050 Climbing FAA TRACON SMA TRACON (SMA)
Sun 04:01:20 PM 43.0083 -83.3664 North 389 448 23,500 1,024 Climbing FAA TRACON SMA TRACON (SMA)
Sun 04:01:40 PM 43.0417 -83.3678 358° North 388 447 23,900 750 Climbing FAA TRACON SMA TRACON (SMA)
Sun 04:02:00 PM 43.0664 -83.3689 358° North 388 447 24,000 100 Climbing FAA TRACON SMA TRACON (SMA)
Sun 04:02:40 PM 43.0664 -83.3689 144° Southeast 388 447 24,000 841 Level FAA TRACON SMA TRACON (SMA)
Sun 04:03:47 PM 43.2511 -83.4847 335° Northwest 362 417 25,500 992 Climbing Cleveland Center
Sun 04:04:47 PM 43.3475 -83.5494 334° Northwest 368 423 26,100 550 Climbing Cleveland Center
Sun 04:05:47 PM 43.4478 -83.6172 334° Northwest 379 436 26,600 500 Climbing Cleveland Center
Sun 04:06:47 PM 43.5136 -83.7236 310° West 373 429 27,100 515 Climbing Cleveland Center
Sun 04:08:30 PM 43.6503 -83.8692 322° Northwest 412 474 28,000 329 Climbing Minneapolis Center
Sun 04:09:31 PM 43.7564 -83.9283 338° Northwest 413 475 28,000  Level Minneapolis Center
Sun 04:10:33 PM 43.8536 -84.0100 329° Northwest 413 475 28,000  Level Minneapolis Center
Sun 04:11:34 PM 43.9372 -84.1119 319° Northwest 405 466 28,000  Level Minneapolis Center
Sun 04:12:36 PM 43.9775 -84.2528 292° West 387 445 28,000  Level Minneapolis Center
Sun 04:13:37 PM 43.9889 -84.3989 276° West 381 438 28,000  Level Minneapolis Center
Sun 04:14:39 PM 44.0039 -84.5750 277° West 384 442 28,000  Level Minneapolis Center
Sun 04:15:40 PM 44.0161 -84.7219 277° West 383 441 28,000  Level Minneapolis Center
Sun 04:16:42 PM 44.0275 -84.8683 276° West 383 441 28,000  Level Minneapolis Center
Sun 04:17:55 PM 44.0400 -85.0156 277° West 383 441 28,000  Level Minneapolis Center
Sun 04:18:57 PM 44.0542 -85.1908 276° West 382 440 28,000  Level Minneapolis Center
Sun 04:19:59 PM 44.0644 -85.3386 276° West 383 441 28,000 -49 Level Minneapolis Center
Sun 04:21:00 PM 44.0761 -85.4853 276° West 383 441 27,900 -537 Descending Minneapolis Center
Sun 04:22:02 PM 44.0869 -85.6353 276° West 386 444 26,900 -976 Descending Minneapolis Center
Sun 04:23:03 PM 44.0981 -85.7914 276° West 397 457 25,900 -1,073 Descending Minneapolis Center
Sun 04:24:05 PM 44.1117 -85.9797 276° West 406 467 24,700 -1,073 Descending Minneapolis Center
Sun 04:25:06 PM 44.1225 -86.1331 276° West 400 460 23,700 -933 Descending Minneapolis Center
Sun 04:26:20 PM 44.1322 -86.2856 275° West 397 457 22,600 -1,111 Descending Minneapolis Center
Sun 04:27:21 PM 44.1442 -86.4631 275° West 386 444 21,200 -1,317 Descending Minneapolis Center
Sun 04:28:23 PM 44.1533 -86.6097 275° West 380 437 19,900 -1,210 Descending Minneapolis Center
Sun 04:29:25 PM 44.1625 -86.7531 275° West 374 430 18,700 -1,171 Descending Minneapolis Center
Sun 04:30:26 PM 44.1714 -86.8961 275° West 371 427 17,500 -1,171 Descending Minneapolis Center
Sun 04:31:28 PM 44.1797 -87.0372 275° West 368 423 16,300 -1,171 Descending Minneapolis Center
Sun 04:32:29 PM 44.1892 -87.1775 275° West 365 420 15,100 -1,268 Descending Minneapolis Center
Sun 04:33:31 PM 44.1989 -87.3333 275° West 350 403 13,700 -1,268 Descending Minneapolis Center
Sun 04:34:32 PM 44.2036 -87.4569 273° West 330 380 12,500 -1,122 Descending Minneapolis Center
Sun 04:35:34 PM 44.1833 -87.5619 255° West 289 333 11,400 -1,016 Descending Minneapolis Center
Sun 04:36:36 PM 44.1642 -87.6594 255° West 269 310 10,400 -976 Descending Minneapolis Center
Sun 04:37:37 PM 44.1469 -87.7522 256° West 252 290 9,400 -976 Descending Minneapolis Center
Sun 04:38:39 PM 44.1306 -87.8389 255° West 239 275 8,400 -1,065 Descending Minneapolis Center
Sun 04:39:41 PM 44.1100 -87.9367 254° West 228 262 7,200 -1,073 Descending Minneapolis Center
Sun 04:40:42 PM 44.0931 -88.0253 255° West 234 269 6,200 -976 Descending Minneapolis Center
Sun 04:41:44 PM 44.0761 -88.1142 255° West 237 273 5,200 -976 Descending Minneapolis Center
Sun 04:42:45 PM 44.0583 -88.2075 255° West 243 280 4,200 -537 Descending Minneapolis Center
Sun 04:43:47 PM 44.0414 -88.3064 257° West 252 290 4,100 -48 Descending Minneapolis Center
Sun 04:44:49 PM 44.0464 -88.4097 274° West 263 303 4,100  Level Minneapolis Center
Sun 04:45:50 PM 44.0511 -88.5178 274° West 252 290 4,100  Level Minneapolis Center
Sun 04:46:52 PM 44.0653 -88.6042 283° West 242 278 4,100 -293 Level Minneapolis Center
Sun 04:47:53 PM 44.1208 -88.6167 351° North 236 272 3,500 -585 Descending Minneapolis Center
Sun 04:48:55 PM 44.1678 -88.5833 27° Northeast 206 237 2,900 -677 Descending Minneapolis Center
Sun 04:49:57 PM 44.2025 -88.5589 27° Northeast 170 196 2,100 -732 Descending Minneapolis Center
Sun 04:50:58 PM 44.2344 -88.5364 27° Northeast 144 166 1,400 -689 Descending Minneapolis Center

Login

Don't have an account? Register now (free) for customized features, flight alerts, and more!